Milton, Iowa
Current Conditions -  °F | °C
As of 4:35 AM on Monday 22 Dec 2014 (Local Time) from KFFL Reporting Station
Overcast Overcast  
Wind Chill: 32°   Ceiling: 3800
Heat Index: 39°   Visibility: 10mi
Dew Point: 34°   Wind: 13mph
Humidity: 81%   Direction: 140°SE
Pressure: 29.75"   Gusts: NA
Location:  40.67°N, 92.16°W
Report Text: KFFL 221035Z AUTO 14011KT 10SM FEW022 BKN038 OVC046 04/01 A2975 RMK AO2
Loading
Personal Weather Stations






























Interactive Weather Map New forecast layout! Learn more

10-Day Weather Forecast

Advertisements
Track Severe Weather on mobile